KBLU/BLU METAR and TAF weather

Enter ICAO airport designator
Station Type Date Time Source
KBLU METAR 2018/07/20 13:52 UTC NOAA

KBLU 201352Z AUTO 14003KT 10SM CLR 22/07 A3018 RMK AO2 SLP105 T02170067


Station Type Date Time Source
KBLU Decoded METAR 2018/07/20 13:52 UTC NOAA

BLUE CANYON AIRPORT, CA, United States (KBLU) 39-17N 120-42W 1609M
Jul 20, 2018 - 09:52 AM EDT / 2018.07.20 1352 UTC
Wind: from the SE (140 degrees) at 3 MPH (3 KT):0
Visibility: 10 mile(s):0
Sky conditions: clear
Temperature: 71.1 F (21.7 C)
Dew Point: 44.1 F (6.7 C)
Relative Humidity: 37%
Pressure (altimeter): 30.18 in. Hg (1022 hPa)
ob: KBLU 201352Z AUTO 14003KT 10SM CLR 22/07 A3018 RMK AO2 SLP105 T02170067
cycle: 14

Station Type Date Time Source
KBLU TAF UTC NOAA

Error!


Example: see airport list